.
WxDataArchive / Data Records for 2011-08-13
2011-08-12 August 2011 2011-08-14

Data Records for Saturday, 13 August 2011

Time	Temp	Chill	HIndex	Humid	Dewpt	 Wind 	HiWind	WindDir	Rain 	Barom 
-----	----	-----	------	-----	-----	------	------	-------	-----	----- 
00:00	67.8	67.8	67.8	72	58.4	0	0	---	0.00	29.944 
00:05	67.8	67.8	67.8	72	58.4	0	0	---	0.00	29.944 
00:10	67.6	67.6	67.6	73	58.6	0	0	---	0.00	29.944 
00:15	67.4	67.4	67.4	73	58.4	0	0	---	0.00	29.940 
00:20	67.4	67.4	67.4	73	58.4	0	0	---	0.00	29.940 
00:25	67.6	67.6	67.6	73	58.6	0	0	---	0.00	29.940 
00:30	67.6	67.6	67.6	73	58.6	0	0	---	0.00	29.934 
00:35	67.6	67.6	67.6	73	58.6	0	0	---	0.00	29.934 
00:40	67.8	67.8	67.8	72	58.4	0	0	---	0.00	29.934 
00:45	67.8	67.8	67.8	72	58.4	0	0	---	0.00	29.933 
00:50	67.9	67.9	67.9	72	58.5	0	0	---	0.00	29.933 
00:55	67.9	67.9	67.9	73	58.9	0	0	---	0.00	29.933 
01:00	67.8	67.8	67.8	73	58.8	0	0	---	0.00	29.930 
01:05	67.8	67.8	67.8	73	58.8	0	0	---	0.00	29.930 
01:10	67.8	67.8	67.8	72	58.4	0	1	112	0.00	29.930 
01:15	67.9	67.9	67.9	72	58.5	0	0	---	0.00	29.927 
01:20	67.9	67.9	67.9	72	58.5	0	0	---	0.00	29.927 
01:25	67.9	67.9	67.9	72	58.5	0	0	---	0.00	29.927 
01:30	67.9	67.9	67.9	72	58.5	0	0	---	0.00	29.918 
01:35	67.9	67.9	67.9	72	58.5	0	0	---	0.00	29.918 
01:40	67.9	67.9	67.9	72	58.5	0	1	112	0.00	29.918 
01:45	67.8	67.8	67.8	72	58.4	0	1	112	0.00	29.911 
01:50	67.8	67.8	67.8	72	58.4	0	0	---	0.00	29.911 
01:55	67.8	67.8	67.8	71	58.0	0	0	---	0.00	29.911 
02:00	67.6	67.6	67.6	71	57.9	0	0	---	0.00	29.908 
02:05	67.8	67.8	67.8	70	57.6	0	0	---	0.00	29.908 
02:10	67.8	67.8	67.8	71	58.0	0	0	---	0.00	29.908 
02:15	67.8	67.8	67.8	70	57.6	0	0	---	0.00	29.904 
02:20	67.8	67.8	67.8	70	57.6	0	0	---	0.00	29.904 
02:25	67.8	67.8	67.8	70	57.6	0	0	---	0.00	29.904 
02:30	67.6	67.6	67.6	70	57.5	0	0	---	0.00	29.909 
02:35	67.6	67.6	67.6	70	57.5	0	0	---	0.00	29.909 
02:40	67.4	67.4	67.4	70	57.3	0	0	---	0.00	29.909 
02:45	67.3	67.3	67.3	70	57.2	0	0	---	0.00	29.912 
02:50	67.1	67.1	67.1	71	57.4	0	0	---	0.00	29.912 
02:55	67.1	67.1	67.1	70	57.0	0	0	---	0.00	29.912 
03:00	67.1	67.1	67.1	71	57.4	0	0	---	0.00	29.913 
03:05	67.1	67.1	67.1	71	57.4	0	0	---	0.00	29.913 
03:10	67.1	67.1	67.1	70	57.0	0	0	---	0.00	29.913 
03:15	66.9	66.9	66.9	71	57.2	0	0	---	0.00	29.914 
03:20	66.9	66.9	66.9	71	57.2	0	0	---	0.00	29.914 
03:25	66.9	66.9	66.9	70	56.8	0	0	---	0.00	29.914 
03:30	66.8	66.8	66.8	71	57.1	0	0	---	0.00	29.917 
03:35	66.8	66.8	66.8	71	57.1	0	0	---	0.00	29.917 
03:40	66.8	66.8	66.8	70	56.7	0	0	---	0.00	29.917 
03:45	66.8	66.8	66.8	71	57.1	0	0	---	0.00	29.918 
03:50	66.8	66.8	66.8	71	57.1	0	0	---	0.00	29.918 
03:55	66.6	66.6	66.6	70	56.5	0	0	---	0.00	29.918 
04:00	66.6	66.6	66.6	71	56.9	0	0	---	0.00	29.918 
04:05	66.6	66.6	66.6	72	57.3	0	0	---	0.00	29.918 
04:10	66.4	66.4	66.4	72	57.1	0	0	---	0.00	29.918 
04:15	66.4	66.4	66.4	71	56.7	0	0	---	0.00	29.917 
04:20	66.4	66.4	66.4	73	57.5	0	0	---	0.00	29.917 
04:25	66.4	66.4	66.4	73	57.5	0	0	---	0.00	29.917 
04:30	66.4	66.4	66.4	73	57.5	0	0	---	0.00	29.915 
04:35	66.4	66.4	66.4	73	57.5	0	0	---	0.00	29.915 
04:40	66.4	66.4	66.4	73	57.5	0	0	---	0.00	29.915 
04:45	66.4	66.4	66.4	73	57.5	0	0	---	0.00	29.909 
04:50	66.3	66.3	66.3	73	57.4	0	0	---	0.00	29.909 
04:55	66.3	66.3	66.3	73	57.4	0	0	---	0.00	29.909 
05:00	66.1	66.1	66.1	73	57.2	0	0	---	0.00	29.903 
05:05	66.1	66.1	66.1	74	57.6	0	0	---	0.00	29.903 
05:10	66.0	66.0	66.0	74	57.5	0	0	---	0.00	29.903 
05:15	65.8	65.8	65.8	75	57.6	0	0	---	0.00	29.903 
05:20	65.8	65.8	65.8	75	57.6	0	0	---	0.00	29.903 
05:25	65.6	65.6	65.6	75	57.5	0	0	---	0.00	29.903 
05:30	65.6	65.6	65.6	75	57.5	0	0	---	0.00	29.903 
05:35	65.6	65.6	65.6	75	57.5	0	0	---	0.00	29.903 
05:40	65.6	65.6	65.6	76	57.8	0	0	---	0.00	29.903 
05:45	65.6	65.6	65.6	76	57.8	0	0	---	0.00	29.902 
05:50	65.5	65.5	65.5	76	57.7	0	0	---	0.00	29.902 
05:55	65.3	65.3	65.3	76	57.5	0	0	---	0.00	29.902 
06:00	65.2	65.2	65.2	77	57.8	0	0	---	0.00	29.904 
06:05	65.0	65.0	65.0	77	57.6	0	0	---	0.00	29.904 
06:10	64.8	64.8	64.8	77	57.4	0	0	---	0.00	29.904 
06:15	64.7	64.7	64.7	77	57.3	0	0	---	0.00	29.906 
06:20	64.5	64.5	64.5	77	57.1	0	0	---	0.00	29.906 
06:25	64.3	64.3	64.3	78	57.3	0	0	---	0.00	29.906 
06:30	64.2	64.2	64.2	79	57.5	0	0	---	0.00	29.905 
06:35	63.9	63.9	63.9	79	57.3	0	0	---	0.00	29.905 
06:40	63.7	63.7	63.7	79	57.1	0	0	---	0.00	29.905 
06:45	63.5	63.5	63.5	80	57.2	0	0	---	0.00	29.906 
06:50	63.4	63.4	63.4	80	57.1	0	0	---	0.00	29.906 
06:55	63.2	63.2	63.2	81	57.3	0	0	---	0.00	29.906 
07:00	63.1	63.1	63.1	82	57.5	0	0	---	0.00	29.905 
07:05	62.9	62.9	62.9	82	57.3	0	0	---	0.00	29.905 
07:10	62.7	62.7	62.7	82	57.1	0	0	---	0.00	29.905 
07:15	62.7	62.7	62.7	83	57.5	0	0	---	0.00	29.909 
07:20	62.7	62.7	62.7	83	57.5	0	0	---	0.00	29.909 
07:25	62.7	62.7	62.7	83	57.5	0	0	---	0.00	29.909 
07:30	62.9	62.9	62.9	84	58.0	0	0	---	0.00	29.914 
07:35	63.2	63.2	63.2	84	58.3	0	0	---	0.00	29.914 
07:40	63.4	63.4	63.4	83	58.1	0	0	---	0.00	29.914 
07:45	63.5	63.5	63.5	83	58.2	0	0	---	0.00	29.916 
07:50	63.9	63.9	63.9	82	58.3	0	0	---	0.00	29.916 
07:55	64.5	64.5	64.5	80	58.2	0	0	---	0.00	29.916 
08:00	65.5	65.5	65.5	78	58.5	0	0	---	0.00	29.913 
08:05	66.4	66.4	66.4	75	58.2	0	0	---	0.00	29.913 
08:10	67.6	67.6	67.6	72	58.2	0	0	---	0.00	29.913 
08:15	68.8	68.8	68.8	70	58.6	0	1	112	0.00	29.912 
08:20	69.8	69.8	69.8	68	58.7	0	1	112	0.00	29.912 
08:25	70.4	70.4	70.4	67	58.9	0	1	112	0.00	29.912 
08:30	71.1	71.1	71.1	65	58.7	0	1	112	0.00	29.906 
08:35	71.8	71.8	71.8	65	59.4	0	1	112	0.00	29.906 
08:40	72.3	72.3	72.3	64	59.4	0	1	112	0.00	29.906 
08:45	72.8	72.8	72.8	62	59.0	0	2	112	0.00	29.904 
08:50	73.3	73.3	73.3	62	59.5	0	2	135	0.00	29.904 
08:55	73.7	73.7	73.7	60	58.9	0	1	135	0.00	29.904 
09:00	74.0	74.0	74.0	61	59.7	0	1	135	0.00	29.903 
09:05	74.9	74.9	74.9	58	59.1	0	1	135	0.00	29.903 
09:10	75.6	75.6	77.8	58	59.8	0	1	135	0.00	29.903 
09:15	76.3	76.3	78.3	56	59.4	0	1	135	0.00	29.907 
09:20	76.1	76.1	78.1	53	57.7	1	2	225	0.00	29.907 
09:25	76.3	76.3	78.3	54	58.4	0	2	225	0.00	29.907 
09:30	76.3	76.3	78.3	54	58.4	0	2	225	0.00	29.904 
09:35	76.5	76.5	78.4	54	58.6	0	2	225	0.00	29.904 
09:40	77.0	77.0	78.7	53	58.5	0	3	68	0.00	29.904 
09:45	77.4	77.4	78.9	52	58.4	0	3	315	0.00	29.903 
09:50	77.7	77.7	79.1	51	58.1	1	3	315	0.00	29.903 
09:55	77.9	77.9	79.2	50	57.7	1	2	292	0.00	29.903 
10:00	78.3	78.3	79.4	50	58.1	0	1	292	0.00	29.902 
10:05	79.0	79.0	79.9	49	58.2	1	3	292	0.00	29.902 
10:10	78.8	78.8	79.7	49	58.0	1	3	292	0.00	29.902 
10:15	79.4	79.4	80.3	50	59.1	0	2	292	0.00	29.902 
10:20	79.8	79.8	80.4	47	57.8	1	3	292	0.00	29.902 
10:25	79.6	79.6	80.4	49	58.7	1	3	292	0.00	29.902 
10:30	79.4	79.4	80.1	48	58.0	2	4	292	0.00	29.902 
10:35	79.4	79.4	80.3	50	59.1	2	4	270	0.00	29.902 
10:40	79.8	79.8	80.4	47	57.8	1	2	270	0.00	29.902 
10:45	79.8	79.8	80.5	48	58.3	0	2	270	0.00	29.901 
10:50	79.6	79.6	80.4	49	58.7	0	2	270	0.00	29.901 
10:55	80.1	80.1	80.7	48	58.6	0	2	270	0.00	29.901 
11:00	81.1	81.1	81.6	48	59.5	0	2	248	0.00	29.903 
11:05	81.4	81.4	81.4	44	57.4	1	6	270	0.00	29.903 
11:10	81.6	81.6	81.6	44	57.5	1	3	270	0.00	29.903 
11:15	81.4	81.4	81.4	44	57.4	1	4	270	0.00	29.903 
11:20	81.6	81.6	81.7	45	58.2	1	4	248	0.00	29.903 
11:25	81.2	81.2	81.2	44	57.2	2	4	270	0.00	29.903 
11:30	81.6	81.6	81.6	44	57.5	1	3	270	0.00	29.902 
11:35	81.8	81.8	81.8	44	57.7	2	4	270	0.00	29.902 
11:40	81.8	81.8	81.8	44	57.7	1	4	270	0.00	29.902 
11:45	82.4	82.4	82.3	44	58.3	1	3	292	0.00	29.900 
11:50	82.8	82.8	82.4	42	57.3	1	3	292	0.00	29.900 
11:55	83.6	83.6	83.4	43	58.7	0	3	68	0.00	29.900 
12:00	84.0	84.0	83.3	40	57.0	1	3	225	0.00	29.898 
12:05	83.6	83.6	82.8	39	56.0	1	3	270	0.00	29.898 
12:10	83.2	83.2	82.5	40	56.3	1	4	292	0.00	29.898 
12:15	83.4	83.4	82.9	41	57.2	2	5	270	0.00	29.893 
12:20	83.6	83.6	83.0	41	57.4	1	3	270	0.00	29.893 
12:25	84.0	84.0	83.3	40	57.0	1	4	270	0.00	29.893 
12:30	84.1	84.1	83.2	39	56.4	1	3	315	0.00	29.885 
12:35	84.0	84.0	83.1	39	56.3	1	3	292	0.00	29.885 
12:40	84.3	84.3	83.4	39	56.6	0	2	0	0.00	29.885 
12:45	84.9	84.9	83.9	38	56.4	0	3	0	0.00	29.883 
12:50	84.7	84.7	83.2	35	54.0	1	4	315	0.00	29.883 
12:55	84.3	84.3	83.0	36	54.4	2	5	270	0.00	29.883 
13:00	84.5	84.5	83.2	36	54.6	2	4	270	0.00	29.884 
13:05	84.7	84.7	83.4	36	54.8	1	3	292	0.00	29.884 
13:10	85.3	85.3	84.3	38	56.8	1	3	270	0.00	29.884 
13:15	85.5	85.5	84.2	36	55.5	2	5	270	0.00	29.879 
13:20	85.5	85.5	84.3	37	56.2	1	3	270	0.00	29.879 
13:25	85.5	85.5	84.3	37	56.2	0	2	270	0.00	29.879 
13:30	85.9	85.9	84.6	36	55.8	1	3	270	0.00	29.870 
13:35	85.9	85.9	84.7	37	56.6	1	4	270	0.00	29.870 
13:40	86.3	86.3	85.0	36	56.2	1	3	270	0.00	29.870 
13:45	86.3	86.3	85.0	36	56.2	1	3	270	0.00	29.868 
13:50	86.1	86.1	84.8	36	56.0	1	3	270	0.00	29.868 
13:55	86.3	86.3	85.4	38	57.7	1	3	270	0.00	29.868 
14:00	86.7	86.7	85.6	37	57.3	1	3	292	0.00	29.866 
14:05	86.7	86.7	85.8	38	58.0	1	3	270	0.00	29.866 
14:10	87.0	87.0	85.6	35	56.0	1	3	292	0.00	29.866 
14:15	86.7	86.7	85.1	34	54.9	3	6	270	0.00	29.866 
14:20	86.7	86.7	85.2	35	55.7	1	3	248	0.00	29.866 
14:25	87.2	87.2	85.6	34	55.4	3	7	270	0.00	29.866 
14:30	87.0	87.0	85.6	35	56.0	2	4	270	0.00	29.862 
14:35	86.7	86.7	85.2	35	55.7	1	4	270	0.00	29.862 
14:40	86.5	86.5	85.0	35	55.6	1	3	270	0.00	29.862 
14:45	86.7	86.7	85.1	34	54.9	2	4	270	0.00	29.851 
14:50	87.0	87.0	85.4	34	55.2	1	3	292	0.00	29.851 
14:55	87.2	87.2	86.0	36	57.0	1	3	270	0.00	29.851 
15:00	87.2	87.2	85.8	35	56.2	2	5	270	0.00	29.849 
15:05	86.3	86.3	85.2	37	56.9	1	4	270	0.00	29.849 
15:10	86.3	86.3	85.0	36	56.2	1	5	270	0.00	29.849 
15:15	87.2	87.2	86.2	37	57.7	1	4	270	0.00	29.848 
15:20	87.4	87.4	86.2	36	57.1	1	4	270	0.00	29.848 
15:25	88.0	88.0	86.7	35	56.9	1	3	315	0.00	29.848 
15:30	87.2	87.2	86.2	37	57.7	1	3	315	0.00	29.842 
15:35	87.2	87.2	86.0	36	57.0	1	3	112	0.00	29.842 
15:40	87.0	87.0	85.8	36	56.8	1	4	292	0.00	29.842 
15:45	87.2	87.2	86.2	37	57.7	2	4	292	0.00	29.836 
15:50	86.7	86.7	85.6	37	57.3	1	3	292	0.00	29.836 
15:55	86.5	86.5	85.4	37	57.1	1	4	292	0.00	29.836 
16:00	87.2	87.2	86.2	37	57.7	0	2	90	0.00	29.833 
16:05	86.5	86.5	85.6	38	57.8	2	4	270	0.00	29.833 
16:10	86.7	86.7	85.8	38	58.0	2	5	270	0.00	29.833 
16:15	86.7	86.7	85.8	38	58.0	2	4	315	0.00	29.826 
16:20	87.0	87.0	86.2	38	58.3	3	5	248	0.00	29.826 
16:25	87.0	87.0	86.4	39	59.0	0	2	248	0.00	29.826 
16:30	87.0	87.0	86.4	39	59.0	2	4	270	0.00	29.821 
16:35	86.5	86.5	85.6	38	57.8	1	4	270	0.00	29.821 
16:40	86.3	86.3	85.4	38	57.7	1	4	270	0.00	29.821 
16:45	86.5	86.5	85.8	39	58.6	1	4	270	0.00	29.820 
16:50	86.5	86.5	85.8	39	58.6	1	3	270	0.00	29.820 
16:55	86.5	86.5	85.8	39	58.6	1	3	90	0.00	29.820 
17:00	87.0	87.0	86.4	39	59.0	1	3	270	0.00	29.806 
17:05	87.0	87.0	86.2	38	58.3	1	4	270	0.00	29.806 
17:10	86.7	86.7	86.0	39	58.7	1	4	270	0.00	29.806 
17:15	86.7	86.7	86.0	39	58.7	2	9	270	0.00	29.804 
17:20	86.7	86.7	86.0	39	58.7	1	4	90	0.00	29.804 
17:25	87.0	87.0	86.4	39	59.0	2	6	270	0.00	29.804 
17:30	87.0	87.0	86.6	40	59.7	1	5	270	0.00	29.803 
17:35	86.7	86.7	86.3	40	59.5	2	5	270	0.00	29.803 
17:40	86.5	86.5	86.3	41	60.0	1	4	270	0.00	29.803 
17:45	86.5	86.5	86.3	41	60.0	1	3	112	0.00	29.805 
17:50	86.3	86.3	86.5	43	61.1	0	4	112	0.00	29.805 
17:55	86.3	86.3	86.0	41	59.8	2	4	292	0.00	29.805 
18:00	85.9	85.9	85.7	42	60.1	2	4	292	0.00	29.807 
18:05	85.9	85.9	86.0	43	60.8	0	2	292	0.00	29.807 
18:10	85.7	85.7	85.7	43	60.6	1	4	292	0.00	29.807 
18:15	85.5	85.5	85.5	43	60.4	0	1	270	0.00	29.816 
18:20	85.1	85.1	84.8	42	59.4	1	3	270	0.00	29.816 
18:25	84.7	84.7	84.6	43	59.7	0	3	270	0.00	29.816 
18:30	84.5	84.5	84.3	43	59.5	0	2	270	0.00	29.811 
18:35	84.3	84.3	84.1	43	59.3	1	4	270	0.00	29.811 
18:40	84.0	84.0	84.0	44	59.7	1	3	270	0.00	29.811 
18:45	84.0	84.0	84.1	45	60.3	1	3	270	0.00	29.809 
18:50	83.8	83.8	84.1	46	60.8	0	2	292	0.00	29.809 
18:55	83.2	83.2	83.4	46	60.2	2	6	292	0.00	29.809 
19:00	80.3	80.3	80.6	45	57.0	2	7	315	0.00	29.814 
19:05	78.1	78.1	79.2	48	56.8	1	6	292	0.00	29.814 
19:10	77.2	77.2	78.7	49	56.5	2	5	292	0.00	29.814 
19:15	77.0	77.0	78.6	49	56.4	1	4	22	0.00	29.813 
19:20	76.7	76.7	78.4	49	56.1	1	4	0	0.00	29.813 
19:25	76.3	76.3	78.2	50	56.3	0	1	292	0.00	29.813 
19:30	76.1	76.1	78.1	51	56.6	0	1	292	0.00	29.827 
19:35	76.0	76.0	78.1	52	57.1	0	2	68	0.00	29.827 
19:40	75.6	75.6	77.9	51	56.2	0	2	68	0.00	29.827 
19:45	75.1	75.1	77.6	52	56.3	0	1	68	0.00	29.828 
19:50	74.7	74.7	74.7	52	55.9	0	1	68	0.00	29.828 
19:55	74.4	74.4	74.4	53	56.1	0	1	68	0.00	29.828 
20:00	74.0	74.0	74.0	54	56.3	0	1	68	0.00	29.828 
20:05	73.9	73.9	73.9	54	56.2	0	1	68	0.00	29.828 
20:10	73.9	73.9	73.9	54	56.2	0	1	45	0.00	29.828 
20:15	73.7	73.7	73.7	55	56.5	0	1	45	0.00	29.825 
20:20	73.7	73.7	73.7	55	56.5	0	1	45	0.00	29.825 
20:25	73.5	73.5	73.5	55	56.3	1	2	45	0.00	29.825 
20:30	73.5	73.5	73.5	56	56.8	2	6	315	0.00	29.838 
20:35	72.5	72.5	72.5	62	58.7	2	5	315	0.02	29.838 
20:40	70.3	70.3	70.3	72	60.8	1	4	315	0.02	29.838 
20:45	68.9	68.9	68.9	77	61.4	0	2	315	0.02	29.862 
20:50	67.9	67.9	67.9	79	61.1	1	4	112	0.01	29.862 
20:55	67.3	67.3	67.3	81	61.3	0	4	112	0.04	29.862 
21:00	66.4	66.4	66.4	83	61.1	0	1	112	0.02	29.851 
21:05	65.8	65.8	65.8	86	61.5	0	1	112	0.00	29.851 
21:10	65.2	65.2	65.2	87	61.2	0	1	112	0.00	29.851 
21:15	64.8	64.8	64.8	88	61.2	0	2	112	0.00	29.837 
21:20	64.8	64.8	64.8	88	61.2	0	2	0	0.01	29.837 
21:25	64.7	64.7	64.7	88	61.1	0	1	0	0.00	29.837 
21:30	64.5	64.5	64.5	88	60.9	0	2	0	0.00	29.845 
21:35	64.7	64.7	64.7	89	61.4	0	1	0	0.00	29.845 
21:40	64.7	64.7	64.7	90	61.7	1	3	0	0.01	29.845 
21:45	64.5	64.5	64.5	90	61.5	1	5	270	0.00	29.867 
21:50	64.2	64.2	64.2	88	60.6	3	6	270	0.00	29.867 
21:55	64.2	64.2	64.2	87	60.2	3	6	270	0.00	29.867 
22:00	64.0	64.0	64.0	87	60.0	1	4	270	0.00	29.871 
22:05	63.9	63.9	63.9	87	59.9	0	1	270	0.00	29.871 
22:10	63.7	63.7	63.7	88	60.1	0	1	270	0.00	29.871 
22:15	63.5	63.5	63.5	88	59.9	0	1	270	0.00	29.867 
22:20	63.5	63.5	63.5	89	60.2	0	1	270	0.01	29.867 
22:25	63.4	63.4	63.4	89	60.1	0	2	270	0.00	29.867 
22:30	63.4	63.4	63.4	90	60.4	0	1	270	0.00	29.861 
22:35	63.2	63.2	63.2	90	60.2	0	1	270	0.01	29.861 
22:40	63.2	63.2	63.2	90	60.2	0	1	270	0.00	29.861 
22:45	63.1	63.1	63.1	91	60.4	0	1	270	0.00	29.859 
22:50	63.2	63.2	63.2	91	60.5	0	3	248	0.00	29.859 
22:55	63.2	63.2	63.2	91	60.5	0	1	248	0.00	29.859 
23:00	63.2	63.2	63.2	92	60.8	0	1	248	0.00	29.851 
23:05	63.2	63.2	63.2	92	60.8	0	1	248	0.00	29.851 
23:10	63.4	63.4	63.4	92	61.0	0	1	248	0.00	29.851 
23:15	63.4	63.4	63.4	92	61.0	0	1	248	0.00	29.853 
23:20	63.5	63.5	63.5	92	61.1	0	2	248	0.00	29.853 
23:25	63.4	63.4	63.4	92	61.0	0	2	248	0.00	29.853 
23:30	63.4	63.4	63.4	92	61.0	0	2	248	0.01	29.853 
23:35	63.4	63.4	63.4	92	61.0	0	1	248	0.00	29.853 
23:40	63.2	63.2	63.2	92	60.8	0	0	---	0.01	29.853 
23:45	63.2	63.2	63.2	93	61.1	0	1	248	0.01	29.846 
23:50	63.2	63.2	63.2	93	61.1	0	0	---	0.01	29.846 
23:55	63.2	63.2	63.2	93	61.1	0	0	---	0.00	29.846 

CoCoRaHS
IN-AL-39
A2 Web Hosting
Creative Commons License
GoDaddy
search engine by freefind advanced

loaded 2018-11-16 11:44:21 • last modified 2010-11-18 10:43:29
Privacy PolicyDisclaimer
• wx.awcolley.com is powered by PmWiki v.2002016 •
• all content (unless otherwise noted) © 2018 A W Colley